createdAt,value
2022-10-07T00:01:03.522Z,7.28
2022-10-07T00:03:35.481Z,7.68
2022-10-07T00:06:19.093Z,7.55
2022-10-07T00:08:52.983Z,6.35
2022-10-07T00:11:27.540Z,8.10
2022-10-07T00:13:59.600Z,9.27
2022-10-07T00:16:34.860Z,9.80
2022-10-07T00:19:07.717Z,8.93
2022-10-07T00:21:38.033Z,9.50
2022-10-07T00:24:07.821Z,9.65
2022-10-07T00:26:37.559Z,9.10
2022-10-07T00:29:06.960Z,10.43
2022-10-07T00:31:37.346Z,8.50
2022-10-07T00:34:05.519Z,8.60
2022-10-07T00:36:37.496Z,8.52
2022-10-07T00:39:15.343Z,8.18
2022-10-07T00:41:50.379Z,10.13
2022-10-07T00:44:32.849Z,11.10
2022-10-07T00:47:07.051Z,12.07
2022-10-07T00:49:49.527Z,10.88
2022-10-07T00:52:20.454Z,10.35
2022-10-07T00:54:53.446Z,9.57
2022-10-07T00:57:25.489Z,10.38
2022-10-07T00:59:55.647Z,9.57
2022-10-07T01:02:25.500Z,10.00
2022-10-07T01:04:56.888Z,9.77
2022-10-07T01:07:24.650Z,7.43
2022-10-07T01:09:55.188Z,9.57
2022-10-07T01:12:40.292Z,12.52
2022-10-07T01:15:18.126Z,9.85
2022-10-07T01:18:11.299Z,10.27
2022-10-07T01:20:58.014Z,9.35
2022-10-07T01:23:39.980Z,8.25
2022-10-07T01:26:51.296Z,9.00
2022-10-07T01:29:56.197Z,9.82
2022-10-07T01:33:04.976Z,7.88
2022-10-07T01:35:37.949Z,8.77
2022-10-07T01:38:10.988Z,9.07
2022-10-07T01:40:48.406Z,8.10
2022-10-07T01:43:20.771Z,6.80
2022-10-07T01:45:49.207Z,7.95
2022-10-07T01:48:17.105Z,7.97
2022-10-07T01:50:45.571Z,7.32
2022-10-07T01:53:39.205Z,6.72
2022-10-07T01:56:46.592Z,10.68
2022-10-07T01:59:35.512Z,10.93
2022-10-07T02:02:18.788Z,10.07
2022-10-07T02:05:30.655Z,8.75
2022-10-07T02:08:24.865Z,9.50
2022-10-07T02:11:16.755Z,9.50
2022-10-07T02:13:56.085Z,10.77
2022-10-07T02:16:35.522Z,10.85
2022-10-07T02:19:11.118Z,10.10
2022-10-07T02:21:40.506Z,9.85
2022-10-07T02:24:12.236Z,9.65
2022-10-07T02:26:43.515Z,9.43
2022-10-07T02:29:14.690Z,11.65
2022-10-07T02:31:47.671Z,10.70
2022-10-07T02:34:20.275Z,11.48
2022-10-07T02:37:05.808Z,11.90
2022-10-07T02:39:34.204Z,12.15
2022-10-07T02:42:14.122Z,10.80
2022-10-07T02:45:07.016Z,10.02
2022-10-07T02:47:45.278Z,9.63
2022-10-07T02:50:22.540Z,9.15
2022-10-07T02:52:55.817Z,8.43
2022-10-07T02:55:27.630Z,9.57
2022-10-07T02:58:00.652Z,9.20
2022-10-07T03:00:34.775Z,9.98
2022-10-07T03:03:05.158Z,9.95
2022-10-07T03:05:35.528Z,9.88
2022-10-07T03:08:11.346Z,8.77
2022-10-07T03:10:38.950Z,10.07
2022-10-07T03:13:06.117Z,10.90
2022-10-07T03:15:41.902Z,9.95
2022-10-07T03:18:26.296Z,8.68
2022-10-07T03:20:55.989Z,13.10
2022-10-07T03:23:25.166Z,14.30
2022-10-07T03:25:54.925Z,11.80
2022-10-07T03:28:24.651Z,15.55
2022-10-07T03:30:53.117Z,15.15
2022-10-07T03:33:25.866Z,14.18
2022-10-07T03:35:53.970Z,11.95
2022-10-07T03:38:21.959Z,11.63
2022-10-07T03:40:49.957Z,9.48
2022-10-07T03:43:18.268Z,11.45
2022-10-07T03:45:50.024Z,12.60
2022-10-07T03:48:18.000Z,12.00
2022-10-07T03:50:57.759Z,12.90
2022-10-07T03:53:29.720Z,13.57
2022-10-07T03:55:58.152Z,12.18
2022-10-07T03:58:25.909Z,11.65
2022-10-07T04:01:03.543Z,14.07
2022-10-07T04:03:30.963Z,14.20
2022-10-07T04:05:59.760Z,11.38
2022-10-07T04:08:29.284Z,12.80
2022-10-07T04:10:59.737Z,13.57
2022-10-07T04:13:27.381Z,11.80
2022-10-07T04:15:55.189Z,12.00
2022-10-07T04:18:23.910Z,10.70
2022-10-07T04:20:51.122Z,10.48
2022-10-07T04:23:19.569Z,10.02
2022-10-07T04:25:47.684Z,10.07
2022-10-07T04:28:22.176Z,10.05
2022-10-07T04:30:51.607Z,11.77
2022-10-07T04:33:21.265Z,14.10
2022-10-07T04:35:50.337Z,11.63
2022-10-07T04:38:18.983Z,10.60
2022-10-07T04:40:50.152Z,12.50
2022-10-07T04:43:23.716Z,10.82
2022-10-07T04:45:54.482Z,10.05
2022-10-07T04:48:24.114Z,11.13
2022-10-07T04:50:54.856Z,10.15
2022-10-07T04:53:22.952Z,11.93
2022-10-07T04:55:54.668Z,10.25
2022-10-07T04:58:22.017Z,10.07
2022-10-07T05:00:53.180Z,12.05
2022-10-07T05:03:23.436Z,10.45
2022-10-07T05:05:55.362Z,9.02
2022-10-07T05:08:25.022Z,9.50
2022-10-07T05:11:01.133Z,9.52
2022-10-07T05:13:30.344Z,8.65
2022-10-07T05:16:00.769Z,7.78
2022-10-07T05:18:29.856Z,10.55
2022-10-07T05:20:57.376Z,8.75
2022-10-07T05:23:28.646Z,8.88
2022-10-07T05:26:08.090Z,10.20
2022-10-07T05:28:37.702Z,10.55
2022-10-07T05:31:09.496Z,11.32
2022-10-07T05:33:38.239Z,9.82
2022-10-07T05:36:08.172Z,10.63
2022-10-07T05:38:36.958Z,12.40
2022-10-07T05:41:09.882Z,12.25
2022-10-07T05:43:42.366Z,13.77
2022-10-07T05:46:16.646Z,12.85
2022-10-07T05:48:52.313Z,14.90
2022-10-07T05:51:21.459Z,15.15
2022-10-07T05:53:49.354Z,13.95
2022-10-07T05:56:22.723Z,12.88
2022-10-07T05:58:52.583Z,11.88
2022-10-07T06:01:24.890Z,10.50
2022-10-07T06:03:55.544Z,9.90
2022-10-07T06:06:24.302Z,10.35
2022-10-07T06:08:53.678Z,11.70
2022-10-07T06:11:40.000Z,10.80
2022-10-07T06:14:07.458Z,9.75
2022-10-07T06:16:34.801Z,9.65
2022-10-07T06:19:02.378Z,10.30
2022-10-07T06:21:29.570Z,9.57
2022-10-07T06:23:58.558Z,12.00
2022-10-07T06:26:26.198Z,10.30
2022-10-07T06:28:53.621Z,9.25
2022-10-07T06:31:26.016Z,10.23
2022-10-07T06:33:54.356Z,10.23
2022-10-07T06:36:21.708Z,8.88
2022-10-07T06:38:51.963Z,8.82
2022-10-07T06:41:20.068Z,6.93
2022-10-07T06:43:48.046Z,7.15
2022-10-07T06:46:20.213Z,6.85
2022-10-07T06:48:47.951Z,5.78
2022-10-07T06:51:18.715Z,5.38
2022-10-07T06:53:50.676Z,5.32
2022-10-07T06:56:18.059Z,4.60
2022-10-07T06:58:45.502Z,5.22
2022-10-07T07:01:13.210Z,4.32
2022-10-07T07:03:40.793Z,4.43
2022-10-07T07:06:11.058Z,4.32
2022-10-07T07:08:41.181Z,4.32
2022-10-07T07:11:32.971Z,4.20
2022-10-07T07:14:00.683Z,4.30
2022-10-07T07:16:28.520Z,4.30
2022-10-07T07:19:01.747Z,4.28
2022-10-07T07:21:30.242Z,4.03
2022-10-07T07:23:58.808Z,4.10
2022-10-07T07:26:28.297Z,4.57
2022-10-07T07:29:02.738Z,4.82
2022-10-07T07:31:33.610Z,4.18
2022-10-07T07:34:05.609Z,4.25
2022-10-07T07:36:36.263Z,4.00
2022-10-07T07:39:11.510Z,5.03
2022-10-07T07:41:42.274Z,4.85
2022-10-07T07:44:12.676Z,5.10
2022-10-07T07:46:44.132Z,5.07
2022-10-07T07:49:13.424Z,5.95
2022-10-07T07:51:44.647Z,5.50
2022-10-07T07:54:13.186Z,6.15
2022-10-07T07:56:41.940Z,6.43
2022-10-07T07:59:10.764Z,10.13
2022-10-07T08:01:39.074Z,10.32
2022-10-07T08:04:07.146Z,12.63
2022-10-07T08:06:34.924Z,7.97
2022-10-07T08:09:02.468Z,7.75
2022-10-07T08:11:30.263Z,7.03
2022-10-07T08:13:57.779Z,8.93
2022-10-07T08:16:28.833Z,7.10
2022-10-07T08:18:58.196Z,7.70
2022-10-07T08:21:32.974Z,5.63
2022-10-07T08:24:04.215Z,5.80
2022-10-07T08:26:34.716Z,6.40
2022-10-07T08:29:02.290Z,5.18
2022-10-07T08:31:30.426Z,6.40
2022-10-07T08:34:01.825Z,6.45
2022-10-07T08:36:32.927Z,5.55
2022-10-07T08:39:02.314Z,5.57
2022-10-07T08:41:54.395Z,5.88
2022-10-07T08:44:48.034Z,5.40
2022-10-07T08:47:30.569Z,6.40
2022-10-07T08:50:18.114Z,5.57
2022-10-07T08:53:00.117Z,6.25
2022-10-07T08:55:49.994Z,5.28
2022-10-07T08:58:31.047Z,5.47
2022-10-07T09:01:40.689Z,5.13
2022-10-07T09:04:34.908Z,5.30
2022-10-07T09:07:27.061Z,4.65
2022-10-07T09:10:00.960Z,5.97
2022-10-07T09:12:52.521Z,4.97
2022-10-07T09:15:41.936Z,5.40
2022-10-07T09:18:24.946Z,5.45
2022-10-07T09:20:56.198Z,4.82
2022-10-07T09:23:30.130Z,5.15
2022-10-07T09:25:57.941Z,4.90
2022-10-07T09:28:34.517Z,6.05
2022-10-07T09:31:03.166Z,4.80
2022-10-07T09:33:31.332Z,5.55
2022-10-07T09:36:11.677Z,6.10
2022-10-07T09:38:46.036Z,4.88
2022-10-07T09:41:36.087Z,5.75
2022-10-07T09:44:15.665Z,5.40
2022-10-07T09:46:59.475Z,4.95
2022-10-07T09:49:29.905Z,4.60
2022-10-07T09:52:03.377Z,4.65
2022-10-07T09:54:36.314Z,5.45
2022-10-07T09:57:05.675Z,6.80
2022-10-07T09:59:37.652Z,4.90
2022-10-07T10:02:20.207Z,5.40
2022-10-07T10:04:57.334Z,4.07
2022-10-07T10:07:32.634Z,4.43
2022-10-07T10:10:28.817Z,6.57
2022-10-07T10:12:59.040Z,6.03
2022-10-07T10:15:45.029Z,5.80
2022-10-07T10:18:37.192Z,3.65
2022-10-07T10:21:31.047Z,3.78
2022-10-07T10:24:15.224Z,3.90
2022-10-07T10:27:04.450Z,3.67
2022-10-07T10:29:48.569Z,3.70
2022-10-07T10:32:51.465Z,3.40
2022-10-07T10:35:35.802Z,3.22
2022-10-07T10:38:51.864Z,3.00
2022-10-07T10:41:56.291Z,4.07
2022-10-07T10:44:54.476Z,3.38
2022-10-07T10:48:25.838Z,3.45
2022-10-07T10:50:53.441Z,3.15
2022-10-07T10:53:52.739Z,3.30
2022-10-07T10:57:09.599Z,3.55
2022-10-07T10:59:45.766Z,2.70
2022-10-07T11:03:14.937Z,2.20
2022-10-07T11:05:44.212Z,2.53
2022-10-07T11:08:23.123Z,2.50
2022-10-07T11:10:57.608Z,2.75
2022-10-07T11:13:51.972Z,2.53
2022-10-07T11:16:45.275Z,2.03
2022-10-07T11:19:25.059Z,2.97
2022-10-07T11:22:00.046Z,2.50
2022-10-07T11:24:34.827Z,2.10
2022-10-07T11:27:15.003Z,2.38
2022-10-07T11:30:17.768Z,2.08
2022-10-07T11:32:47.741Z,2.30
2022-10-07T11:35:49.295Z,1.90
2022-10-07T11:38:31.402Z,2.38
2022-10-07T11:41:09.602Z,16.73
2022-10-07T11:43:56.937Z,4.10
2022-10-07T11:46:46.277Z,2.40
2022-10-07T11:49:23.670Z,2.22
2022-10-07T11:52:04.614Z,2.88
2022-10-07T11:55:09.302Z,1.65
2022-10-07T11:57:44.015Z,1.70
2022-10-07T12:00:33.126Z,1.80
2022-10-07T12:03:33.569Z,2.20
2022-10-07T12:06:13.767Z,1.90
2022-10-07T12:08:44.223Z,2.10
2022-10-07T12:11:16.729Z,1.77
2022-10-07T12:13:54.169Z,2.00
2022-10-07T12:16:24.354Z,7.53
2022-10-07T12:19:07.372Z,2.15
2022-10-07T12:21:59.338Z,2.00
2022-10-07T12:24:28.231Z,1.70
2022-10-07T12:27:18.221Z,2.70
2022-10-07T12:30:02.482Z,2.05
2022-10-07T12:32:39.656Z,2.30
2022-10-07T12:35:37.943Z,1.67
2022-10-07T12:38:11.073Z,1.90
2022-10-07T12:40:41.749Z,1.95
2022-10-07T12:43:47.878Z,1.98
2022-10-07T12:46:21.606Z,2.15
2022-10-07T12:49:03.263Z,2.13
2022-10-07T12:51:38.781Z,2.10
2022-10-07T12:54:20.381Z,2.30
2022-10-07T12:56:49.365Z,2.00
2022-10-07T12:59:49.795Z,1.92
2022-10-07T13:03:08.997Z,1.83
2022-10-07T13:06:14.482Z,2.10
2022-10-07T13:09:04.355Z,2.53
2022-10-07T13:11:34.454Z,2.10
2022-10-07T13:14:16.753Z,2.15
2022-10-07T13:17:35.381Z,4.65
2022-10-07T13:20:38.946Z,3.03
2022-10-07T13:23:17.338Z,2.50
2022-10-07T13:25:58.036Z,2.15
2022-10-07T13:28:38.796Z,2.78
2022-10-07T13:31:28.664Z,2.13
2022-10-07T13:33:59.399Z,2.42
2022-10-07T13:36:33.100Z,2.53
2022-10-07T13:39:23.193Z,2.75
2022-10-07T13:41:58.158Z,2.20
2022-10-07T13:44:32.158Z,2.50
2022-10-07T13:47:10.128Z,2.22
2022-10-07T13:49:44.156Z,2.30
2022-10-07T13:52:37.228Z,3.03
2022-10-07T13:55:31.482Z,2.60
2022-10-07T13:58:04.599Z,2.97
2022-10-07T14:00:36.117Z,2.55
2022-10-07T14:03:17.464Z,2.60
2022-10-07T14:05:52.508Z,7.35
2022-10-07T14:08:24.823Z,2.70
2022-10-07T14:10:59.914Z,2.88
2022-10-07T14:13:29.087Z,2.63
2022-10-07T14:15:59.443Z,3.10
2022-10-07T14:18:29.819Z,2.70
2022-10-07T14:21:10.801Z,2.80
2022-10-07T14:23:38.439Z,2.70
2022-10-07T14:26:19.067Z,3.30
2022-10-07T14:28:46.533Z,3.30
2022-10-07T14:31:40.119Z,3.05
2022-10-07T14:34:38.441Z,3.05
2022-10-07T14:37:13.783Z,3.00
2022-10-07T14:39:50.039Z,2.80
2022-10-07T14:42:34.960Z,2.78
2022-10-07T14:45:08.327Z,4.50
2022-10-07T14:47:36.399Z,3.22
2022-10-07T14:50:04.347Z,3.35
2022-10-07T14:52:46.779Z,3.60
2022-10-07T14:55:20.632Z,4.68
2022-10-07T14:57:48.233Z,7.50
2022-10-07T15:00:25.679Z,4.55
2022-10-07T15:02:58.245Z,4.20
2022-10-07T15:05:27.021Z,7.03
2022-10-07T15:07:54.326Z,5.97
2022-10-07T15:10:26.415Z,7.97
2022-10-07T15:12:56.135Z,6.53
2022-10-07T15:15:23.462Z,9.75
2022-10-07T15:17:50.968Z,7.30
2022-10-07T15:20:18.488Z,12.63
2022-10-07T15:22:46.303Z,12.00
2022-10-07T15:25:15.410Z,16.80
2022-10-07T15:27:43.496Z,9.38
2022-10-07T15:30:11.926Z,6.40
2022-10-07T15:32:39.163Z,6.65
2022-10-07T15:35:07.612Z,4.90
2022-10-07T15:37:34.849Z,3.90
2022-10-07T15:40:02.121Z,3.70
2022-10-07T15:42:29.729Z,4.70
2022-10-07T15:44:57.035Z,5.05
2022-10-07T15:47:24.492Z,5.20
2022-10-07T15:49:51.834Z,4.90
2022-10-07T15:52:19.139Z,5.20
2022-10-07T15:54:46.667Z,6.30
2022-10-07T15:57:14.796Z,7.15
2022-10-07T15:59:42.597Z,5.47
2022-10-07T16:02:21.443Z,8.55
2022-10-07T16:04:49.082Z,5.30
2022-10-07T16:07:16.918Z,5.30
2022-10-07T16:09:44.287Z,5.85
2022-10-07T16:12:11.894Z,5.15
2022-10-07T16:14:39.281Z,5.63
2022-10-07T16:17:06.503Z,5.95
2022-10-07T16:19:33.924Z,5.10
2022-10-07T16:22:01.369Z,4.97
2022-10-07T16:24:34.049Z,4.80
2022-10-07T16:27:02.674Z,6.10
2022-10-07T16:29:48.653Z,5.63
2022-10-07T16:32:16.550Z,5.32
2022-10-07T16:34:44.600Z,5.32
2022-10-07T16:37:13.169Z,5.65
2022-10-07T16:39:40.681Z,5.55
2022-10-07T16:42:08.249Z,6.85
2022-10-07T16:44:35.938Z,7.30
2022-10-07T16:47:03.574Z,6.38
2022-10-07T16:49:30.946Z,6.50
2022-10-07T16:51:58.922Z,6.30
2022-10-07T16:54:29.995Z,6.72
2022-10-07T16:56:57.716Z,6.70
2022-10-07T16:59:26.339Z,6.35
2022-10-07T17:01:56.820Z,6.55
2022-10-07T17:04:25.429Z,6.90
2022-10-07T17:06:54.185Z,6.72
2022-10-07T17:09:24.642Z,9.30
2022-10-07T17:11:52.598Z,8.27
2022-10-07T17:14:22.900Z,8.25
2022-10-07T17:16:57.759Z,7.63
2022-10-07T17:19:28.294Z,10.38
2022-10-07T17:21:59.312Z,9.88
2022-10-07T17:24:27.328Z,9.57
2022-10-07T17:26:56.319Z,10.05
2022-10-07T17:29:26.200Z,9.80
2022-10-07T17:31:54.277Z,9.80
2022-10-07T17:34:22.913Z,9.50
2022-10-07T17:36:50.737Z,8.52
2022-10-07T17:39:21.676Z,8.23
2022-10-07T17:41:49.098Z,8.30
2022-10-07T17:44:17.512Z,8.93
2022-10-07T17:46:45.387Z,8.13
2022-10-07T17:49:13.556Z,8.35
2022-10-07T17:51:43.138Z,7.97
2022-10-07T17:54:13.806Z,8.05
2022-10-07T17:56:44.588Z,8.45
2022-10-07T17:59:12.441Z,8.30
2022-10-07T18:01:41.639Z,8.27
2022-10-07T18:04:22.474Z,7.55
2022-10-07T18:06:52.269Z,8.45
2022-10-07T18:09:22.145Z,8.50
2022-10-07T18:12:08.177Z,9.57
2022-10-07T18:14:54.678Z,8.48
2022-10-07T18:17:24.589Z,9.27
2022-10-07T18:19:52.681Z,9.25
2022-10-07T18:22:20.252Z,9.73
2022-10-07T18:24:47.760Z,9.82
2022-10-07T18:27:15.640Z,10.07
2022-10-07T18:29:42.945Z,10.07
2022-10-07T18:32:10.647Z,9.90
2022-10-07T18:34:38.090Z,9.70
2022-10-07T18:37:05.384Z,9.35
2022-10-07T18:39:33.059Z,10.65
2022-10-07T18:42:00.434Z,10.73
2022-10-07T18:44:27.961Z,10.07
2022-10-07T18:46:55.526Z,10.30
2022-10-07T18:49:23.412Z,10.32
2022-10-07T18:51:51.175Z,11.05
2022-10-07T18:54:20.350Z,11.13
2022-10-07T18:56:49.690Z,11.65
2022-10-07T18:59:18.944Z,12.60
2022-10-07T19:01:50.396Z,11.75
2022-10-07T19:04:19.777Z,12.75
2022-10-07T19:06:48.435Z,13.00
2022-10-07T19:09:22.246Z,13.57
2022-10-07T19:11:50.098Z,13.15
2022-10-07T19:14:17.730Z,12.38
2022-10-07T19:16:49.389Z,13.32
2022-10-07T19:19:20.963Z,14.23
2022-10-07T19:21:55.041Z,13.77
2022-10-07T19:24:45.694Z,11.93
2022-10-07T19:27:14.319Z,12.40
2022-10-07T19:29:41.795Z,11.85
2022-10-07T19:32:09.277Z,11.88
2022-10-07T19:34:37.494Z,11.50
2022-10-07T19:37:05.193Z,12.00
2022-10-07T19:39:32.882Z,12.73
2022-10-07T19:42:00.549Z,11.55
2022-10-07T19:44:28.004Z,11.30
2022-10-07T19:46:55.388Z,11.52
2022-10-07T19:49:22.810Z,12.13
2022-10-07T19:51:50.088Z,12.88
2022-10-07T19:54:17.502Z,12.45
2022-10-07T19:56:45.426Z,12.63
2022-10-07T19:59:14.779Z,14.02
2022-10-07T20:01:45.324Z,13.90
2022-10-07T20:04:21.747Z,12.30
2022-10-07T20:06:49.299Z,13.82
2022-10-07T20:09:19.359Z,13.85
2022-10-07T20:11:47.146Z,13.73
2022-10-07T20:14:16.206Z,13.52
2022-10-07T20:16:44.382Z,14.85
2022-10-07T20:19:16.458Z,14.88
2022-10-07T20:21:44.323Z,14.65
2022-10-07T20:24:17.899Z,13.95
2022-10-07T20:26:45.383Z,18.02
2022-10-07T20:29:16.161Z,17.25
2022-10-07T20:31:45.008Z,15.00
2022-10-07T20:34:16.777Z,20.30
2022-10-07T20:36:44.430Z,20.90
2022-10-07T20:39:37.489Z,20.42
2022-10-07T20:42:21.732Z,18.90
2022-10-07T20:44:50.723Z,20.30
2022-10-07T20:47:20.058Z,21.02
2022-10-07T20:49:48.867Z,20.48
2022-10-07T20:52:23.496Z,20.33
2022-10-07T20:54:52.897Z,20.33
2022-10-07T20:57:33.868Z,17.85
2022-10-07T21:00:01.051Z,17.63
2022-10-07T21:02:29.153Z,16.65
2022-10-07T21:04:56.538Z,18.52
2022-10-07T21:07:23.942Z,19.10
2022-10-07T21:09:51.208Z,17.40
2022-10-07T21:12:18.810Z,17.67
2022-10-07T21:14:48.090Z,20.70
2022-10-07T21:17:16.825Z,18.98
2022-10-07T21:19:44.556Z,22.83
2022-10-07T21:22:11.991Z,25.58
2022-10-07T21:24:39.318Z,26.60
2022-10-07T21:27:08.616Z,29.25
2022-10-07T21:29:40.663Z,28.05
2022-10-07T21:32:10.321Z,25.52
2022-10-07T21:34:38.730Z,25.95
2022-10-07T21:37:06.443Z,22.73
2022-10-07T21:39:33.751Z,24.73
2022-10-07T21:42:01.913Z,24.70
2022-10-07T21:44:29.493Z,25.50
2022-10-07T21:46:59.903Z,26.17
2022-10-07T21:49:27.530Z,25.88
2022-10-07T21:51:54.787Z,25.02
2022-10-07T21:54:22.048Z,28.25
2022-10-07T21:56:50.206Z,28.52
2022-10-07T21:59:17.510Z,28.17
2022-10-07T22:01:44.750Z,27.15
2022-10-07T22:04:19.890Z,26.70
2022-10-07T22:07:06.022Z,26.55
2022-10-07T22:09:33.654Z,28.75
2022-10-07T22:12:00.978Z,27.40
2022-10-07T22:14:28.597Z,28.90
2022-10-07T22:16:55.823Z,28.40
2022-10-07T22:19:23.274Z,28.15
2022-10-07T22:21:50.823Z,27.98
2022-10-07T22:24:18.214Z,28.30
2022-10-07T22:26:47.740Z,28.15
2022-10-07T22:29:17.781Z,27.05
2022-10-07T22:31:45.874Z,27.98
2022-10-07T22:34:33.477Z,25.60
2022-10-07T22:37:01.827Z,25.38
2022-10-07T22:39:29.875Z,27.23
2022-10-07T22:42:01.303Z,26.83
2022-10-07T22:44:28.695Z,25.33
2022-10-07T22:46:59.291Z,24.58
2022-10-07T22:49:30.085Z,24.23
2022-10-07T22:52:00.097Z,25.02
2022-10-07T22:54:28.570Z,22.98
2022-10-07T22:56:55.924Z,21.60
2022-10-07T22:59:23.236Z,22.38
2022-10-07T23:01:50.834Z,21.02
2022-10-07T23:04:20.367Z,21.73
2022-10-07T23:06:47.746Z,20.00
2022-10-07T23:09:15.253Z,20.90
2022-10-07T23:11:42.478Z,21.33
2022-10-07T23:14:09.740Z,19.30
2022-10-07T23:16:37.170Z,18.23
2022-10-07T23:19:04.403Z,18.50
2022-10-07T23:21:35.058Z,17.48
2022-10-07T23:24:07.293Z,18.25
2022-10-07T23:26:35.703Z,18.08
2022-10-07T23:29:03.637Z,17.23
2022-10-07T23:31:32.745Z,20.65
2022-10-07T23:34:02.279Z,19.80
2022-10-07T23:36:31.014Z,19.38
2022-10-07T23:39:00.710Z,18.02
2022-10-07T23:41:31.132Z,17.70
2022-10-07T23:44:02.417Z,18.00
2022-10-07T23:46:33.965Z,17.48
2022-10-07T23:49:02.531Z,17.00
2022-10-07T23:51:32.411Z,16.95
2022-10-07T23:54:03.362Z,16.60
2022-10-07T23:56:32.076Z,18.70
2022-10-07T23:58:59.331Z,16.90
